Time;durP1;ratioP1;P1;durP2;ratioP2;P2;SDS_P1;SDS_P2;PMS_P1;PMS_P2;Temp;Humidity;BMP_temperature;BMP_pressure;BME280_temperature;BME280_humidity;BME280_pressure;Samples;Min_cycle;Max_cycle;Signal;HPM_P1;HPM_P2
2021/04/01 00:00:24;;;;;;;9.43;6.88;;;;;;;10.72;62.80;99977.38;5032441;28;20022;-70
2021/04/01 00:02:51;;;;;;;17.17;8.50;;;;;;;10.67;63.02;99973.25;5033057;28;20040;-69
2021/04/01 00:05:17;;;;;;;39.85;9.18;;;;;;;10.61;64.03;99971.78;5032832;28;20041;-69
2021/04/01 00:07:43;;;;;;;12.73;8.77;;;;;;;10.52;63.63;99973.03;5032920;28;20087;-70
2021/04/01 00:10:13;;;;;;;10.73;7.32;;;;;;;10.51;64.09;99970.50;5032653;28;20033;-70
2021/04/01 00:12:39;;;;;;;11.13;7.25;;;;;;;10.48;63.88;99963.59;5032897;28;20036;-70
2021/04/01 00:15:07;;;;;;;10.32;6.85;;;;;;;10.43;63.58;99968.19;5032716;28;20112;-70
2021/04/01 00:17:33;;;;;;;19.05;8.60;;;;;;;10.41;64.23;99964.78;5051136;28;20055;-70
2021/04/01 00:19:58;;;;;;;16.73;6.88;;;;;;;10.36;64.20;99953.59;5043994;28;20393;-69
2021/04/01 00:22:24;;;;;;;9.85;7.38;;;;;;;10.31;63.96;99952.94;5048244;28;20026;-71
2021/04/01 00:24:51;;;;;;;17.00;8.50;;;;;;;10.25;64.58;99953.19;5048559;28;20029;-71
2021/04/01 00:27:16;;;;;;;15.98;8.13;;;;;;;10.23;64.63;99947.97;5048183;28;20036;-71
2021/04/01 00:29:41;;;;;;;11.52;8.05;;;;;;;10.21;65.11;99951.59;5050908;28;20500;-73
2021/04/01 00:32:07;;;;;;;13.20;7.82;;;;;;;10.20;65.06;99948.13;5051136;28;20488;-72
2021/04/01 00:34:32;;;;;;;17.25;7.88;;;;;;;10.17;65.23;99944.78;5052979;28;20040;-71
2021/04/01 00:36:58;;;;;;;13.68;8.00;;;;;;;10.23;64.40;99947.97;5050951;28;20033;-69
2021/04/01 00:39:23;;;;;;;17.17;8.73;;;;;;;10.26;64.49;99947.84;5032169;28;20029;-70
2021/04/01 00:41:48;;;;;;;9.50;7.20;;;;;;;10.28;64.54;99953.06;5040851;28;20025;-71
2021/04/01 00:44:16;;;;;;;10.23;6.70;;;;;;;10.28;64.35;99950.44;5031699;28;20049;-70
2021/04/01 00:46:46;;;;;;;11.07;7.90;;;;;;;10.29;64.28;99949.53;5032983;28;20025;-70
2021/04/01 00:49:11;;;;;;;13.82;8.27;;;;;;;10.28;64.00;99950.44;5044976;23;20179;-72
2021/04/01 00:51:36;;;;;;;11.63;7.03;;;;;;;10.28;64.07;99955.72;5040766;28;20125;-72
2021/04/01 00:54:02;;;;;;;13.65;8.23;;;;;;;10.30;63.80;99954.72;5013132;28;20061;-72
2021/04/01 00:56:27;;;;;;;10.73;7.25;;;;;;;10.29;63.57;99958.28;4995361;28;20045;-71
2021/04/01 00:58:53;;;;;;;11.35;7.10;;;;;;;10.28;64.23;99958.34;5012536;28;20037;-71
2021/04/01 01:03:53;;;;;;;12.05;8.43;;;;;;;10.36;63.94;99952.72;5011870;28;20423;-71
2021/04/01 01:06:19;;;;;;;15.05;8.02;;;;;;;10.32;63.81;99952.03;5010973;28;20030;-71
2021/04/01 01:08:44;;;;;;;10.07;6.22;;;;;;;10.37;63.47;99949.19;5011650;28;20054;-70
2021/04/01 01:11:09;;;;;;;11.68;7.88;;;;;;;10.33;64.26;99948.44;5022627;28;20044;-71
2021/04/01 01:13:35;;;;;;;13.13;8.55;;;;;;;10.21;64.52;99949.81;5046847;28;20034;-71
2021/04/01 01:16:01;;;;;;;14.32;9.10;;;;;;;10.13;65.19;99938.78;5045477;28;20029;-70
2021/04/01 01:18:27;;;;;;;12.60;7.95;;;;;;;10.10;64.65;99938.94;5051406;28;20033;-70
2021/04/01 01:20:56;;;;;;;15.02;7.63;;;;;;;10.07;65.02;99944.34;5051708;28;20531;-70
2021/04/01 01:23:22;;;;;;;12.70;8.00;;;;;;;10.08;64.62;99949.53;5051750;28;20037;-71
2021/04/01 01:25:47;;;;;;;10.40;8.02;;;;;;;10.04;65.26;99947.97;5052182;28;20040;-70
2021/04/01 01:28:12;;;;;;;14.27;9.57;;;;;;;10.05;65.27;99944.41;5050197;28;20029;-71
2021/04/01 01:30:38;;;;;;;13.07;7.82;;;;;;;10.07;65.04;99941.69;5051393;28;20116;-71
2021/04/01 01:33:07;;;;;;;16.33;7.55;;;;;;;10.10;64.39;99945.03;5051877;28;20067;-72
2021/04/01 01:35:35;;;;;;;11.48;8.13;;;;;;;10.10;64.44;99942.41;5066694;28;20040;-70
2021/04/01 01:38:06;;;;;;;13.88;8.48;;;;;;;10.06;65.53;99939.97;5066621;28;20407;-71
2021/04/01 01:40:32;;;;;;;12.63;8.38;;;;;;;9.98;65.26;99944.75;5049682;28;20037;-71
2021/04/01 01:43:00;;;;;;;14.32;8.90;;;;;;;9.99;65.03;99949.94;5051414;28;20112;-72
2021/04/01 01:45:27;;;;;;;16.75;9.73;;;;;;;10.03;65.20;99948.03;5050982;28;20037;-73
2021/04/01 01:47:53;;;;;;;12.45;7.88;;;;;;;10.11;64.54;99945.88;5051019;28;20086;-73
2021/04/01 01:50:21;;;;;;;16.45;6.90;;;;;;;10.21;63.97;99949.81;5051210;28;20091;-73
2021/04/01 01:52:47;;;;;;;14.55;8.43;;;;;;;10.18;65.00;99951.75;5038956;28;20029;-73
2021/04/01 01:55:13;;;;;;;13.40;8.40;;;;;;;10.14;64.42;99943.13;5066192;28;20029;-72
2021/04/01 01:57:38;;;;;;;15.35;9.32;;;;;;;10.14;64.63;99943.13;5051597;28;20033;-72
2021/04/01 02:00:10;;;;;;;13.20;7.97;;;;;;;10.12;64.76;99942.34;5049935;28;20113;-72
2021/04/01 02:02:36;;;;;;;15.25;8.88;;;;;;;10.12;65.25;99937.09;5052167;28;20029;-73
2021/04/01 02:05:03;;;;;;;12.02;8.73;;;;;;;10.10;64.99;99942.41;5052913;28;20029;-72
2021/04/01 02:07:28;;;;;;;11.07;7.30;;;;;;;10.08;64.71;99944.25;5052393;28;20178;-72
2021/04/01 02:09:54;;;;;;;16.70;10.00;;;;;;;10.06;64.88;99946.09;5051782;28;20543;-72
2021/04/01 02:12:19;;;;;;;14.52;8.13;;;;;;;10.06;65.18;99945.25;5050626;28;20033;-72
2021/04/01 02:14:44;;;;;;;12.35;7.30;;;;;;;10.08;64.79;99936.34;5049439;28;20064;-71
2021/04/01 02:17:14;;;;;;;16.50;8.77;;;;;;;10.10;64.62;99939.78;5055764;28;20037;-72
2021/04/01 02:19:39;;;;;;;13.43;7.82;;;;;;;10.07;64.89;99934.66;5062837;28;20032;-72
2021/04/01 02:22:04;;;;;;;17.08;9.07;;;;;;;10.07;64.74;99939.91;5077675;28;20315;-72
2021/04/01 02:24:30;;;;;;;16.38;8.48;;;;;;;10.09;64.99;99937.19;5090267;28;20052;-72
2021/04/01 02:26:56;;;;;;;16.75;9.77;;;;;;;10.12;65.21;99938.88;5068994;28;20082;-72
2021/04/01 02:29:22;;;;;;;12.88;8.10;;;;;;;10.13;65.00;99940.56;5070036;28;20047;-73
2021/04/01 02:31:48;;;;;;;14.10;9.52;;;;;;;10.13;64.37;99935.28;5069145;28;20066;-73
2021/04/01 02:34:13;;;;;;;12.85;8.50;;;;;;;10.15;64.79;99938.72;5070610;28;20037;-72
2021/04/01 02:36:39;;;;;;;14.30;9.30;;;;;;;10.10;65.13;99923.97;5085987;28;20036;-72
2021/04/01 02:39:05;;;;;;;12.63;7.95;;;;;;;10.08;64.66;99927.59;5069671;28;20049;-72
2021/04/01 02:41:30;;;;;;;11.82;7.88;;;;;;;10.08;64.71;99925.81;5070539;28;20487;-72
2021/04/01 02:43:55;;;;;;;15.02;9.77;;;;;;;10.08;65.13;99922.31;5085157;28;20116;-72
2021/04/01 02:46:21;;;;;;;18.75;9.43;;;;;;;10.07;65.20;99929.38;5057754;28;20063;-72
2021/04/01 02:48:46;;;;;;;16.40;8.13;;;;;;;10.08;65.19;99917.91;5061786;28;20036;-73
2021/04/01 02:51:11;;;;;;;19.17;9.20;;;;;;;10.07;65.06;99918.00;5067255;28;20384;-72
2021/04/01 02:53:37;;;;;;;19.83;9.18;;;;;;;10.08;65.07;99917.06;5074803;28;20037;-72
2021/04/01 02:56:02;;;;;;;14.73;8.85;;;;;;;10.12;64.75;99918.66;5080685;28;20033;-72
2021/04/01 02:58:28;;;;;;;16.75;10.13;;;;;;;10.10;65.04;99916.06;5092061;28;20032;-72
2021/04/01 03:00:53;;;;;;;14.00;7.80;;;;;;;10.16;64.35;99914.06;5051936;28;20056;-72
2021/04/01 03:03:31;;;;;;;11.48;7.22;;;;;;;10.19;64.63;99914.81;5050663;28;20102;-73
2021/04/01 03:05:58;;;;;;;19.02;8.20;;;;;;;10.22;64.30;99911.19;5028265;28;20022;-72
2021/04/01 03:08:24;;;;;;;16.55;9.15;;;;;;;10.24;64.37;99915.44;5028925;28;20121;-71
2021/04/01 03:10:49;;;;;;;16.65;8.95;;;;;;;10.25;64.00;99916.31;5029912;28;20543;-72
2021/04/01 03:13:15;;;;;;;14.63;9.25;;;;;;;10.25;63.97;99919.78;5029322;28;20087;-72
2021/04/01 03:15:40;;;;;;;16.05;8.13;;;;;;;10.29;64.49;99912.63;5029674;28;20061;-72
2021/04/01 03:18:06;;;;;;;10.52;8.15;;;;;;;10.29;64.13;99915.28;5028458;28;20033;-71
2021/04/01 03:20:31;;;;;;;23.35;9.25;;;;;;;10.28;63.83;99913.53;5029795;28;20381;-70
2021/04/01 03:22:57;;;;;;;17.00;10.10;;;;;;;10.27;64.10;99911.81;5028263;28;20508;-71
2021/04/01 03:25:22;;;;;;;13.25;8.40;;;;;;;10.24;63.90;99909.34;5045109;28;20049;-70
2021/04/01 03:27:47;;;;;;;11.82;7.47;;;;;;;10.26;64.49;99910.97;5029708;28;20057;-71
2021/04/01 03:30:15;;;;;;;20.60;11.07;;;;;;;10.20;64.10;99913.03;5029231;28;20041;-70
2021/04/01 03:32:48;;;;;;;18.20;10.43;;;;;;;10.20;64.12;99915.66;5029326;28;20044;-72
2021/04/01 03:35:21;;;;;;;14.45;9.50;;;;;;;10.20;63.97;99905.13;5029707;28;20090;-71
2021/04/01 03:37:50;;;;;;;18.65;10.23;;;;;;;10.22;63.92;99906.75;5029577;28;20037;-73
2021/04/01 03:40:16;;;;;;;14.02;9.05;;;;;;;10.22;63.44;99906.75;5030158;28;20048;-72
2021/04/01 03:42:41;;;;;;;14.98;10.05;;;;;;;10.24;63.87;99906.69;5030186;28;20512;-73
2021/04/01 03:45:10;;;;;;;18.17;8.73;;;;;;;10.26;64.21;99910.97;5045004;28;20083;-72
2021/04/01 03:47:36;;;;;;;15.82;9.18;;;;;;;10.30;63.67;99914.34;5027643;28;20037;-72
2021/04/01 03:50:02;;;;;;;12.93;8.75;;;;;;;10.32;63.38;99909.84;5029291;28;20103;-72
2021/04/01 03:52:27;;;;;;;19.13;9.57;;;;;;;10.36;63.68;99911.44;5027960;28;20079;-71
2021/04/01 03:54:57;;;;;;;20.05;9.52;;;;;;;10.36;63.49;99914.06;5028714;28;20439;-72
2021/04/01 03:57:23;;;;;;;13.93;9.55;;;;;;;10.36;63.67;99907.91;5029358;28;20164;-73
2021/04/01 03:59:55;;;;;;;14.27;8.00;;;;;;;10.40;63.42;99914.78;5029163;28;20488;-72
2021/04/01 04:02:33;;;;;;;17.70;9.77;;;;;;;10.42;63.20;99905.00;5029286;28;20037;-72
2021/04/01 04:05:04;;;;;;;12.80;8.68;;;;;;;10.43;62.88;99912.81;5027989;28;20044;-72
2021/04/01 04:10:22;;;;;;;17.08;9.68;;;;;;;10.41;64.10;99911.19;5029039;28;20037;-72
2021/04/01 04:15:16;;;;;;;14.00;8.52;;;;;;;10.47;63.83;99916.19;5029171;28;20040;-71
2021/04/01 04:17:42;;;;;;;15.20;9.13;;;;;;;10.48;63.81;99917.91;5027232;28;20038;-70
2021/04/01 04:20:09;;;;;;;15.45;8.73;;;;;;;10.48;63.41;99921.41;5031502;28;20447;-70
2021/04/01 04:22:35;;;;;;;15.43;8.90;;;;;;;10.48;63.63;99923.16;5030547;28;20259;-72
2021/04/01 04:25:02;;;;;;;18.60;9.60;;;;;;;10.43;64.08;99918.09;5032654;28;20121;-70
2021/04/01 04:30:12;;;;;;;14.55;9.18;;;;;;;10.42;64.53;99916.41;5032819;28;20025;-70
2021/04/01 04:32:37;;;;;;;13.95;8.60;;;;;;;10.41;63.95;99919.97;5035700;28;20420;-70
2021/04/01 04:35:04;;;;;;;13.45;9.48;;;;;;;10.39;64.72;99932.38;5046020;28;20046;-70
2021/04/01 04:37:29;;;;;;;19.15;10.32;;;;;;;10.42;64.31;99926.09;5032012;28;20041;-71
2021/04/01 04:39:55;;;;;;;16.45;10.38;;;;;;;10.40;64.21;99925.31;5032114;28;20029;-71
2021/04/01 04:42:20;;;;;;;17.42;8.82;;;;;;;10.38;64.58;99924.53;5033117;28;20060;-71
2021/04/01 04:44:46;;;;;;;20.65;9.57;;;;;;;10.42;64.16;99921.69;5032267;28;20094;-71
2021/04/01 04:47:12;;;;;;;15.80;10.35;;;;;;;10.41;64.71;99927.88;5032289;28;20030;-71
2021/04/01 04:49:37;;;;;;;17.85;10.65;;;;;;;10.41;64.72;99933.16;5031675;28;20503;-73
2021/04/01 04:52:03;;;;;;;17.77;11.13;;;;;;;10.40;64.62;99934.06;5032092;28;20049;-73
2021/04/01 04:54:29;;;;;;;13.70;8.75;;;;;;;10.40;64.98;99934.06;5032887;28;20041;-72
2021/04/01 04:56:57;;;;;;;16.95;11.18;;;;;;;10.39;64.69;99937.63;5030546;28;20040;-72
2021/04/01 05:07:02;;;;;;;17.77;10.23;;;;;;;10.35;65.34;99945.75;5052598;28;20447;-72
2021/04/01 05:09:28;;;;;;;15.63;9.88;;;;;;;10.30;65.35;99941.53;5051043;28;20033;-73
2021/04/01 05:11:53;;;;;;;18.90;10.30;;;;;;;10.30;64.83;99938.91;5052404;28;20037;-73
2021/04/01 05:14:19;;;;;;;20.95;10.18;;;;;;;10.31;65.17;99945.91;5051907;28;20037;-73
2021/04/01 05:16:44;;;;;;;15.68;10.10;;;;;;;10.32;65.69;99947.59;5052005;28;20037;-72
2021/04/01 05:19:11;;;;;;;17.85;9.65;;;;;;;10.30;65.40;99940.69;5051407;28;20025;-71
2021/04/01 05:24:09;;;;;;;20.95;11.02;;;;;;;10.21;65.88;99946.34;5051723;28;20037;-72
2021/04/01 05:29:09;;;;;;;20.85;11.43;;;;;;;10.29;65.93;99958.28;5050933;28;20171;-72
2021/04/01 05:31:37;;;;;;;15.40;8.75;;;;;;;10.32;65.75;99960.78;5048024;28;20060;-72
2021/04/01 05:34:03;;;;;;;22.98;13.05;;;;;;;10.32;65.97;99965.19;5037935;28;20403;-72
2021/04/01 05:36:30;;;;;;;17.10;11.25;;;;;;;10.28;66.03;99960.97;5035877;28;20034;-72
2021/04/01 05:38:57;;;;;;;19.08;13.73;;;;;;;10.27;66.15;99964.53;5024437;28;20089;-73
2021/04/01 05:41:24;;;;;;;24.83;12.10;;;;;;;10.27;65.96;99961.88;5033569;28;20562;-72
2021/04/01 05:52:02;;;;;;;17.05;10.50;;;;;;;10.39;66.10;99968.41;5031531;28;20072;-72
2021/04/01 06:05:48;;;;;;;24.45;14.68;;;;;;;10.72;64.34;99971.25;5030079;28;20082;-71
2021/04/01 06:08:20;;;;;;;25.23;15.68;;;;;;;10.80;64.46;99976.16;5030290;28;20433;-72
2021/04/01 06:10:48;;;;;;;24.80;12.30;;;;;;;10.84;64.39;99980.38;5030547;28;20025;-71
2021/04/01 06:13:15;;;;;;;22.95;13.45;;;;;;;10.93;64.03;99979.97;5030619;28;20029;-72
2021/04/01 06:15:49;;;;;;;27.33;14.55;;;;;;;10.99;63.91;99981.44;5029531;28;20115;-73
2021/04/01 06:18:16;;;;;;;23.45;14.73;;;;;;;11.06;63.83;99985.50;5030369;28;20400;-72
2021/04/01 06:20:45;;;;;;;22.15;12.90;;;;;;;11.11;63.87;99984.34;5030416;28;20029;-73
2021/04/01 06:23:28;;;;;;;20.73;13.48;;;;;;;11.19;63.45;99986.59;5030405;28;20033;-72
2021/04/01 06:25:55;;;;;;;28.08;14.05;;;;;;;11.24;63.61;99984.59;5031110;28;20040;-73
2021/04/01 06:28:52;;;;;;;23.77;14.60;;;;;;;11.38;62.91;99992.69;5030601;28;20108;-72
2021/04/01 06:31:29;;;;;;;;;;;;;;;11.55;62.15;99996.28;5030315;28;20045;-71
2021/04/01 06:34:00;;;;;;;24.17;11.98;;;;;;;11.66;61.74;99996.59;5030390;28;19963;-71
2021/04/01 06:36:28;;;;;;;20.88;13.15;;;;;;;11.75;60.61;99990.00;5030392;28;20037;-72
2021/04/01 06:38:53;;;;;;;25.77;13.95;;;;;;;11.87;60.28;99989.41;5030071;28;20056;-71
2021/04/01 06:41:24;;;;;;;25.85;12.80;;;;;;;12.00;59.96;99993.13;5028658;28;20045;-71
2021/04/01 06:43:55;;;;;;;19.80;12.27;;;;;;;12.13;59.84;99990.69;5030318;28;20040;-72
2021/04/01 06:46:24;;;;;;;23.50;12.93;;;;;;;12.26;60.14;99990.91;5030787;28;20037;-72
2021/04/01 06:49:16;;;;;;;20.35;13.75;;;;;;;12.40;59.59;99998.09;5038300;28;20060;-71
2021/04/01 07:00:01;;;;;;;27.30;13.48;;;;;;;13.63;55.96;100007.16;5031129;28;20131;-72
2021/04/01 07:02:33;;;;;;;24.85;14.48;;;;;;;13.88;55.01;100012.75;5032087;28;20080;-72
2021/04/01 07:05:53;;;;;;;30.92;17.20;;;;;;;14.11;54.27;100010.50;5055571;28;20431;-73
2021/04/01 07:08:04;;;;;;;29.10;15.07;;;;;;;14.33;53.17;100008.25;5007985;28;20030;-68
2021/04/01 07:13:19;;;;;;;26.85;16.88;;;;;;;14.90;52.40;100004.75;5019271;28;20088;-68
2021/04/01 07:15:50;;;;;;;30.95;17.52;;;;;;;15.24;51.65;100008.75;5018716;28;20079;-68
2021/04/01 07:18:28;;;;;;;29.17;16.73;;;;;;;15.52;51.10;100014.88;5015456;28;20190;-67
2021/04/01 07:21:29;;;;;;;27.55;17.42;;;;;;;15.82;50.28;100016.50;5029663;28;20034;-67
2021/04/01 07:48:47;;;;;;;30.98;17.02;;;;;;;19.81;39.22;100007.72;5024058;28;20115;-69
2021/04/01 07:54:09;;;;;;;25.92;16.17;;;;;;;20.54;37.66;100002.41;5007694;28;20121;-67
2021/04/01 07:56:44;;;;;;;46.17;26.65;;;;;;;20.71;36.86;100001.78;5016907;28;20040;-70
2021/04/01 08:04:28;;;;;;;39.25;19.80;;;;;;;21.28;35.30;99999.41;5044400;28;20471;-68
2021/04/01 08:07:12;;;;;;;32.55;20.92;;;;;;;21.59;34.71;99994.81;5038672;28;20033;-73
2021/04/01 08:09:41;;;;;;;34.75;20.65;;;;;;;21.81;34.64;99995.50;5027935;28;20033;-73
2021/04/01 08:12:32;;;;;;;36.78;20.95;;;;;;;22.10;33.64;99998.13;5042604;28;20039;-73
2021/04/01 08:15:13;;;;;;;35.25;19.08;;;;;;;22.60;32.97;100000.56;5035183;28;20037;-74
2021/04/01 08:17:53;;;;;;;31.55;21.02;;;;;;;22.81;32.57;100004.84;5021914;28;20050;-73
2021/04/01 08:20:22;;;;;;;37.08;21.25;;;;;;;23.19;31.79;100014.59;5024147;28;20062;-73
2021/04/01 08:23:16;;;;;;;41.63;21.77;;;;;;;23.28;31.39;100005.63;5039297;28;20041;-72
2021/04/01 08:25:58;;;;;;;34.40;21.63;;;;;;;23.88;30.35;99998.78;5011801;28;20508;-72
2021/04/01 08:36:21;;;;;;;66.65;29.02;;;;;;;24.78;28.02;100004.75;5032551;28;19913;-72
2021/04/01 08:38:46;;;;;;;55.65;25.92;;;;;;;25.02;27.48;100004.84;5031953;28;20116;-72
2021/04/01 08:41:28;;;;;;;53.90;30.40;;;;;;;25.27;26.12;100002.25;5032364;28;20112;-73
2021/04/01 08:44:11;;;;;;;49.35;27.58;;;;;;;25.49;26.40;100006.16;5032790;28;20037;-72
2021/04/01 08:46:58;;;;;;;45.58;27.10;;;;;;;25.74;25.58;99998.91;5031120;28;20396;-72
2021/04/01 08:49:42;;;;;;;50.08;31.63;;;;;;;25.78;24.92;100004.84;5031415;28;20382;-71
2021/04/01 08:52:26;;;;;;;55.70;32.20;;;;;;;26.04;23.85;99999.28;5032164;28;20485;-73
2021/04/01 08:54:51;;;;;;;47.33;31.52;;;;;;;26.28;23.98;100001.09;5032042;28;20045;-72
2021/04/01 08:57:45;;;;;;;48.80;30.55;;;;;;;26.53;23.68;100004.63;5031505;28;20094;-73
2021/04/01 09:00:12;;;;;;;48.33;32.45;;;;;;;26.95;23.11;100011.56;5021327;28;20048;-73
2021/04/01 09:02:38;;;;;;;44.53;27.48;;;;;;;27.26;22.06;100005.34;5028740;28;20048;-75
2021/04/01 09:05:09;;;;;;;47.42;30.88;;;;;;;27.19;22.34;100006.03;5011759;28;20029;-74
2021/04/01 09:07:39;;;;;;;47.00;30.05;;;;;;;27.17;22.31;100001.81;5016138;28;20046;-74
2021/04/01 09:10:19;;;;;;;44.65;28.90;;;;;;;27.47;22.05;100004.69;5019339;28;20083;-73
2021/04/01 09:13:02;;;;;;;47.58;28.02;;;;;;;27.54;21.63;100005.66;5019809;28;20520;-74
2021/04/01 09:16:29;;;;;;;44.03;29.83;;;;;;;27.58;21.57;100013.25;5025908;28;20049;-72
2021/04/01 09:18:27;;;;;;;50.93;30.17;;;;;;;27.68;21.77;100009.47;5007069;28;20042;-72
2021/04/01 09:20:56;;;;;;;45.80;29.52;;;;;;;27.76;21.17;100017.50;5026149;28;20302;-71
2021/04/01 09:23:35;;;;;;;43.83;28.25;;;;;;;27.96;21.52;100018.75;5025911;28;20029;-71
2021/04/01 09:26:02;;;;;;;49.58;29.50;;;;;;;27.72;22.32;100013.50;5010055;28;20597;-73
2021/04/01 09:28:32;;;;;;;42.40;28.98;;;;;;;27.88;22.44;100007.13;5025820;28;20045;-74
2021/04/01 09:31:02;;;;;;;46.47;29.80;;;;;;;28.26;21.84;100013.38;5037280;28;20036;-73
2021/04/01 09:33:30;;;;;;;44.92;30.33;;;;;;;28.39;22.26;100020.88;5035242;28;20061;-71
2021/04/01 09:36:08;;;;;;;39.22;27.25;;;;;;;28.65;21.92;100015.88;5036902;28;20063;-71
2021/04/01 09:38:43;;;;;;;37.80;26.20;;;;;;;28.47;22.50;100015.38;5005567;28;20042;-69
2021/04/01 09:41:09;;;;;;;38.33;27.10;;;;;;;28.42;22.51;100013.19;5005517;28;20080;-71
2021/04/01 09:43:36;;;;;;;39.67;28.33;;;;;;;28.59;22.30;100018.50;5005684;28;20041;-72
2021/04/01 09:46:13;;;;;;;51.83;28.20;;;;;;;28.89;21.84;100019.31;5062565;28;20044;-72
2021/04/01 09:48:50;;;;;;;38.75;23.50;;;;;;;29.17;20.61;100015.94;5059725;28;20068;-74
2021/04/01 09:51:18;;;;;;;38.90;23.80;;;;;;;29.17;20.83;100014.06;5056992;28;20037;-72
2021/04/01 09:53:54;;;;;;;36.05;25.00;;;;;;;29.11;20.27;100022.97;5055563;28;20087;-74
2021/04/01 09:56:25;;;;;;;44.90;24.35;;;;;;;28.99;20.86;100014.41;5054961;28;20055;-73
2021/04/01 09:58:53;;;;;;;40.25;22.80;;;;;;;29.07;20.61;100010.81;5080451;28;20129;-73
2021/04/01 10:03:54;;;;;;;33.67;19.10;;;;;;;29.40;19.88;100023.91;5006367;28;20416;-72
2021/04/01 10:06:47;;;;;;;31.40;21.55;;;;;;;29.31;20.39;100021.34;5006009;28;20053;-72
2021/04/01 10:09:21;;;;;;;35.83;23.08;;;;;;;29.17;20.77;100015.94;5005880;28;20034;-72
2021/04/01 10:11:55;;;;;;;33.55;19.70;;;;;;;29.33;20.28;100023.84;5045840;28;20044;-72
2021/04/01 10:14:21;;;;;;;;;;;;;;;29.60;20.48;100016.81;5020794;28;20210;-75
2021/04/01 10:16:59;;;;;;;43.35;24.80;;;;;;;29.48;20.30;100013.75;5022289;28;20040;-71
2021/04/01 10:19:28;;;;;;;37.47;22.15;;;;;;;29.68;20.13;100007.72;5011628;28;20505;-72
2021/04/01 10:21:53;;;;;;;43.47;21.75;;;;;;;29.73;19.92;100011.56;5006221;28;20477;-73
2021/04/01 10:24:37;;;;;;;31.52;21.15;;;;;;;29.65;19.68;100008.91;5005520;28;20052;-72
2021/04/01 10:32:15;;;;;;;35.33;22.67;;;;;;;29.76;20.00;100002.16;5007641;28;20125;-73
2021/04/01 10:34:51;;;;;;;36.28;21.38;;;;;;;29.86;20.01;99999.13;5020595;28;20042;-75
2021/04/01 10:37:19;;;;;;;39.47;23.77;;;;;;;29.28;20.66;100004.56;5011312;28;20029;-72
2021/04/01 10:39:44;;;;;;;43.35;25.38;;;;;;;28.90;20.76;100002.84;5013070;28;20049;-71
2021/04/01 10:42:14;;;;;;;41.45;25.80;;;;;;;28.11;21.70;99999.81;5018381;28;20041;-74
2021/04/01 10:44:40;;;;;;;37.70;23.10;;;;;;;27.77;22.34;100006.50;5007706;28;20046;-74
2021/04/01 10:47:07;;;;;;;38.05;22.50;;;;;;;27.24;23.38;100001.97;5019491;28;20564;-74
2021/04/01 10:49:38;;;;;;;44.00;25.92;;;;;;;26.69;23.66;100003.75;5012015;28;20049;-71
2021/04/01 10:52:05;;;;;;;41.88;24.67;;;;;;;26.35;24.12;100002.94;5011323;28;20594;-72
2021/04/01 10:54:37;;;;;;;44.00;23.77;;;;;;;26.40;24.13;99998.88;5027079;28;20078;-75
2021/04/01 10:57:04;;;;;;;48.92;26.88;;;;;;;25.92;24.09;100005.03;5027668;28;20042;-72
2021/04/01 10:59:46;;;;;;;43.75;23.67;;;;;;;25.71;24.48;100013.59;5024058;28;20037;-72
2021/04/01 11:02:18;;;;;;;67.55;26.60;;;;;;;25.19;25.01;100000.38;5022269;28;20095;-74
2021/04/01 11:04:48;;;;;;;51.70;24.98;;;;;;;24.89;25.93;100003.63;5021557;28;20281;-73
2021/04/01 11:07:14;;;;;;;41.00;25.65;;;;;;;24.50;26.49;99994.16;5010303;28;20121;-72
2021/04/01 11:09:47;;;;;;;43.05;21.48;;;;;;;24.28;26.44;99990.13;5016161;28;20045;-72
2021/04/01 11:12:20;;;;;;;35.28;23.55;;;;;;;24.13;27.26;99989.03;5009487;28;20034;-73
2021/04/01 11:15:00;;;;;;;39.40;21.20;;;;;;;23.76;27.00;99984.72;5019153;28;20037;-72
2021/04/01 11:17:29;;;;;;;40.70;21.20;;;;;;;23.81;26.78;99981.56;5012344;28;20037;-73
2021/04/01 11:19:57;;;;;;;44.90;22.55;;;;;;;23.79;27.20;99993.31;5011785;28;20034;-71
2021/04/01 11:22:23;;;;;;;41.85;21.58;;;;;;;23.64;26.98;99989.47;5004473;28;20056;-72
2021/04/01 11:24:48;;;;;;;33.17;18.27;;;;;;;23.62;26.24;99988.75;5017549;28;20409;-72
2021/04/01 11:27:17;;;;;;;36.20;18.55;;;;;;;23.46;26.33;99988.63;5009987;28;20408;-71
2021/04/01 11:29:49;;;;;;;31.38;17.75;;;;;;;23.14;27.15;99990.00;5013189;28;20247;-72
2021/04/01 11:32:22;;;;;;;28.17;17.15;;;;;;;23.30;27.63;99987.44;5018589;28;20404;-72
2021/04/01 11:34:50;;;;;;;33.17;18.80;;;;;;;23.43;27.67;99979.03;5014704;28;20116;-72
2021/04/01 11:37:20;;;;;;;38.15;22.88;;;;;;;23.42;28.20;99987.25;5003484;28;20044;-71
2021/04/01 11:39:46;;;;;;;37.40;21.73;;;;;;;23.29;28.27;99993.00;5025093;28;20453;-72
2021/04/01 11:42:14;;;;;;;44.28;22.13;;;;;;;23.22;28.27;99997.28;5012730;28;20060;-72
2021/04/01 11:44:41;;;;;;;38.80;21.77;;;;;;;23.06;28.67;99995.25;5016463;28;20113;-72
2021/04/01 11:47:14;;;;;;;42.30;22.17;;;;;;;23.12;28.28;99991.97;5018709;28;20033;-72
2021/04/01 11:49:40;;;;;;;35.33;19.02;;;;;;;23.25;28.45;99995.13;5018530;28;20096;-71
2021/04/01 11:52:12;;;;;;;38.15;19.58;;;;;;;23.06;28.92;99995.25;5013613;28;20033;-72
2021/04/01 11:54:38;;;;;;;32.92;17.60;;;;;;;22.86;29.12;99994.50;5011810;28;20046;-71
2021/04/01 11:57:32;;;;;;;36.97;18.02;;;;;;;22.82;29.38;99983.22;5033118;28;20063;-72
2021/04/01 12:00:08;;;;;;;31.67;15.70;;;;;;;22.61;29.72;99987.97;5018764;28;20040;-71
2021/04/01 12:02:45;;;;;;;37.22;17.02;;;;;;;22.66;29.55;99985.69;5015193;28;20041;-72
2021/04/01 12:05:12;;;;;;;28.90;14.60;;;;;;;22.60;29.45;99988.97;5035302;28;20500;-71
2021/04/01 12:07:38;;;;;;;31.90;13.73;;;;;;;22.62;29.66;99989.66;5037858;28;20126;-72
2021/04/01 12:10:04;;;;;;;25.63;12.00;;;;;;;22.51;28.85;99983.47;5039349;28;20037;-73
2021/04/01 12:12:31;;;;;;;28.77;14.55;;;;;;;22.61;29.29;99983.44;5024746;28;20042;-72
2021/04/01 12:14:57;;;;;;;19.20;11.50;;;;;;;22.67;29.65;99982.84;5019009;28;20037;-71
2021/04/01 12:17:54;;;;;;;32.90;16.98;;;;;;;22.55;29.63;99985.88;5025996;28;20148;-72
2021/04/01 12:20:21;;;;;;;23.80;12.38;;;;;;;22.56;29.65;99982.19;5045348;28;20101;-74
2021/04/01 12:22:46;;;;;;;30.75;14.32;;;;;;;22.71;29.58;99978.00;5048997;28;20040;-73
2021/04/01 12:25:15;;;;;;;29.95;14.70;;;;;;;22.70;29.57;99970.97;5051908;28;20071;-74
2021/04/01 12:27:49;;;;;;;33.55;15.43;;;;;;;22.72;29.87;99974.34;5052634;28;20655;-73
2021/04/01 12:30:21;;;;;;;23.92;13.13;;;;;;;22.73;29.94;99976.03;5037562;28;20558;-73
2021/04/01 12:32:48;;;;;;;36.03;16.02;;;;;;;22.59;30.41;99969.28;5028747;28;20041;-74
2021/04/01 12:35:15;;;;;;;39.15;15.82;;;;;;;22.49;30.61;99973.88;5010687;28;20092;-73
2021/04/01 12:37:42;;;;;;;28.77;15.65;;;;;;;22.46;31.17;99975.00;5028156;28;21920;-73
2021/04/01 12:40:19;;;;;;;26.90;13.82;;;;;;;22.46;30.77;99972.31;5024788;28;20034;-73
2021/04/01 12:42:45;;;;;;;27.70;13.40;;;;;;;22.49;30.24;99974.72;5025375;28;20048;-74
2021/04/01 12:45:23;;;;;;;31.27;14.05;;;;;;;22.48;31.35;99974.88;5029109;28;20556;-72
2021/04/01 12:47:52;;;;;;;34.28;15.57;;;;;;;22.42;32.56;99972.75;5040498;28;20037;-72
2021/04/01 12:50:18;;;;;;;43.88;15.50;;;;;;;22.47;32.57;99970.47;5017678;28;20065;-73
2021/04/01 12:52:53;;;;;;;32.90;15.50;;;;;;;22.43;32.50;99967.25;5016377;28;20484;-72
2021/04/01 12:55:43;;;;;;;27.15;13.68;;;;;;;22.31;32.48;99971.13;5018948;28;20045;-73
2021/04/01 12:58:20;;;;;;;29.48;14.32;;;;;;;22.44;32.05;99966.25;5026067;28;20113;-71
2021/04/01 13:00:50;;;;;;;41.83;16.35;;;;;;;22.45;32.65;99959.06;5021888;28;20636;-71
2021/04/01 13:03:15;;;;;;;37.22;16.52;;;;;;;22.44;33.08;99965.41;5022850;28;20034;-71
2021/04/01 13:05:45;;;;;;;48.17;23.98;;;;;;;22.46;33.49;99963.44;5018321;28;20763;-71
2021/04/01 13:10:45;;;;;;;31.35;17.35;;;;;;;22.32;32.90;99956.69;5021332;28;20041;-71
2021/04/01 13:13:11;;;;;;;39.03;19.63;;;;;;;22.25;33.62;99958.28;5036040;28;20033;-72
2021/04/01 13:15:38;;;;;;;32.70;17.92;;;;;;;22.25;33.72;99963.66;5061581;28;20127;-72